Quick Links (Output Below):   Max & Min Temps   /   Climate Reports   /   Zone Forecasts
River Forecasts   /   Forestry Forecasts   /   Aviation Forecasts   /   Radars   /   Features

Terminal Aerodrome Forecast (Pine Bluff)

Pick a Site:
Arkadelphia | El Dorado | Fayetteville | Fort Smith | Harrison | Highfill | Hot Springs | Jonesboro
Little Rock | Monticello | Mountain Home | Pine Bluff | Texarkana
 Forecast 

KPBF 300540Z 3006/3106 01009KT P6SM BKN250
     FM301400 02006KT P6SM SCT020 SCT250
     FM301800 05006KT P6SM SCT250
     FM310000 08004KT P6SM BKN250=


 Latest METARs (Observations) 
How to Decode METARs
07Z KPBF 300653Z AUTO 35003KT 10SM CLR 02/M02 A3046 RMK AO2 SLP312
         T00221017
         
06Z KPBF 300553Z AUTO 34005KT 10SM CLR 03/M01 A3046 RMK AO2 SLP313
         T00331011 10106 20033 401890033 50010
         
05Z KPBF 300453Z AUTO 01007KT 10SM CLR 05/M01 A3046 RMK AO2 SLP313
         T00501011
         
04Z KPBF 300353Z AUTO 35011KT 10SM FEW033 06/M01 A3044 RMK AO2 SLP308
         T00561006
         
03Z KPBF 300253Z AUTO 36016G22KT 10SM FEW034 07/M01 A3043 RMK AO2
         SLP303 T00671006 51040
         
02Z KPBF 300153Z AUTO 35017G24KT 10SM CLR 07/01 A3040 RMK AO2 PK WND
         01027/0119 SLP294 T00720006
         
01Z KPBF 300053Z AUTO 36019G29KT 10SM CLR 09/02 A3036 RMK AO2 PK WND
         36029/0053 SLP279 T00890017
         
00Z KPBF 292353Z AUTO 36014G26KT 10SM CLR 11/03 A3031 RMK AO2 PK WND
         34027/2323 PRESRR SLP262 T01110033 10189 20106 53047
         
***** Today's Observations (Above) *****


23Z KPBF 292253Z AUTO 36013G20KT 10SM CLR 14/04 A3025 RMK AO2 PK WND
         36026/2207 SLP242 T01390044
         
22Z KPBF 292153Z AUTO 35012G20KT 10SM CLR 17/04 A3020 RMK AO2 SLP226
         T01670039
         
***** Yesterday's Observations (Above) *****


Back to Main Page
http://www.srh.noaa.gov/lzk/qfcst.php

USA.gov is the U.S. government's official web portal to all federal, state and local government web resources and services.